Time,TemperatureF,DewpointF,PressureIn,WindDirection,WindDirectionDegrees,WindSpeedMPH,WindSpeedGustMPH,Humidity,HourlyPrecipIn,Conditions,Clouds,dailyrainin,SolarRadiationWatts/m^2,SoftwareType,DateUTC
2013-03-28 11:01:00,43.0,43.0,-100.00,South,181,6.0,15.0,100,-99.99,,,0.33,154.000000,,2013-03-28 18:01:00,
2013-03-28 11:52:00,43.0,43.0,-100.00,South,181,6.0,15.0,100,-99.99,,,0.33,154.000000,,2013-03-28 18:52:00,
2013-03-28 12:01:00,43.0,43.0,-100.00,SSE,167,7.0,12.0,100,0.00,,,0.33,266.000000,,2013-03-28 19:01:00,
2013-03-28 12:33:00,43.0,43.0,-100.00,SSE,167,7.0,12.0,100,0.00,,,0.33,266.000000,,2013-03-28 19:33:00,
2013-03-28 12:42:00,43.0,43.0,-100.00,SSE,167,7.0,12.0,100,0.00,,,0.33,266.000000,,2013-03-28 19:42:00,
2013-03-28 12:52:00,43.0,43.0,-100.00,SSE,167,7.0,12.0,100,0.00,,,0.33,266.000000,,2013-03-28 19:52:00,
2013-03-28 13:01:00,46.0,44.0,-100.00,SSW,193,7.0,11.0,93,0.00,,,0.33,549.000000,,2013-03-28 20:01:00,
2013-03-28 13:33:00,46.0,44.0,-100.00,SSW,193,7.0,11.0,93,0.00,,,0.33,549.000000,,2013-03-28 20:33:00,
2013-03-28 13:42:00,46.0,44.0,-100.00,SSW,193,7.0,11.0,93,0.00,,,0.33,549.000000,,2013-03-28 20:42:00,
2013-03-28 13:53:00,46.0,44.0,-100.00,SSW,193,7.0,11.0,93,0.00,,,0.33,549.000000,,2013-03-28 20:53:00,
2013-03-28 14:01:00,46.0,39.0,-100.00,SSW,203,8.0,15.0,77,0.00,,,0.33,513.000000,,2013-03-28 21:01:00,
2013-03-28 14:33:00,46.0,39.0,-100.00,SSW,203,8.0,15.0,77,0.00,,,0.33,513.000000,,2013-03-28 21:33:00,
2013-03-28 14:43:00,46.0,39.0,-100.00,SSW,203,8.0,15.0,77,0.00,,,0.33,513.000000,,2013-03-28 21:43:00,
2013-03-28 14:53:00,46.0,39.0,-100.00,SSW,203,8.0,15.0,77,0.00,,,0.33,513.000000,,2013-03-28 21:53:00,
2013-03-28 15:01:00,49.0,40.0,-100.00,SSW,200,7.0,15.0,70,0.00,,,0.33,449.000000,,2013-03-28 22:01:00,
2013-03-28 15:32:00,49.0,40.0,-100.00,SSW,200,7.0,15.0,70,0.00,,,0.33,449.000000,,2013-03-28 22:32:00,
2013-03-28 15:42:00,49.0,40.0,-100.00,SSW,200,7.0,15.0,70,0.00,,,0.33,449.000000,,2013-03-28 22:42:00,
2013-03-28 15:52:00,49.0,40.0,-100.00,SSW,200,7.0,15.0,70,0.00,,,0.33,449.000000,,2013-03-28 22:52:00,
2013-03-28 16:01:00,52.0,40.0,-100.00,WSW,244,4.0,20.0,64,0.00,,,0.33,675.000000,,2013-03-28 23:01:00,
2013-03-28 16:32:00,52.0,40.0,-100.00,WSW,244,4.0,20.0,64,0.00,,,0.33,675.000000,,2013-03-28 23:32:00,
2013-03-28 16:42:00,52.0,40.0,-100.00,WSW,244,4.0,20.0,64,0.00,,,0.33,675.000000,,2013-03-28 23:42:00,
2013-03-28 16:52:00,52.0,40.0,-100.00,WSW,244,4.0,20.0,64,0.00,,,0.33,675.000000,,2013-03-28 23:52:00,
2013-03-28 17:01:00,52.0,39.0,-100.00,WNW,296,3.0,13.0,61,0.00,,,-99.99,686.000000,,2013-03-29 00:01:00,
2013-03-28 17:32:00,52.0,39.0,-100.00,WNW,296,3.0,13.0,61,0.00,,,-99.99,686.000000,,2013-03-29 00:32:00,
2013-03-28 17:42:00,52.0,39.0,-100.00,WNW,296,3.0,13.0,61,0.00,,,-99.99,686.000000,,2013-03-29 00:42:00,
2013-03-28 17:52:00,52.0,39.0,-100.00,WNW,296,3.0,13.0,61,0.00,,,-99.99,686.000000,,2013-03-29 00:52:00,
2013-03-28 18:01:00,50.0,42.0,-100.00,South,190,1.0,8.0,74,0.00,,,-99.99,184.000000,,2013-03-29 01:01:00,
2013-03-28 18:22:00,50.0,42.0,-100.00,South,190,1.0,8.0,74,0.00,,,-99.99,184.000000,,2013-03-29 01:22:00,
2013-03-28 18:33:00,50.0,42.0,-100.00,South,190,1.0,8.0,74,0.00,,,-99.99,184.000000,,2013-03-29 01:33:00,
2013-03-28 18:42:00,50.0,42.0,-100.00,South,190,1.0,8.0,74,0.00,,,-99.99,184.000000,,2013-03-29 01:42:00,
2013-03-28 18:52:00,50.0,42.0,-100.00,South,190,1.0,8.0,74,0.00,,,-99.99,184.000000,,2013-03-29 01:52:00,
2013-03-28 19:01:00,47.0,43.0,-100.00,North,353,5.0,8.0,87,0.00,,,-99.99,159.000000,,2013-03-29 02:01:00,
2013-03-28 19:32:00,47.0,43.0,-100.00,North,353,5.0,8.0,87,0.00,,,-99.99,159.000000,,2013-03-29 02:32:00,
2013-03-28 19:42:00,47.0,43.0,-100.00,North,353,5.0,8.0,87,0.00,,,-99.99,159.000000,,2013-03-29 02:42:00,
2013-03-28 19:52:00,47.0,43.0,-100.00,North,353,5.0,8.0,87,0.00,,,-99.99,159.000000,,2013-03-29 02:52:00,
2013-03-28 20:01:00,46.0,41.0,-100.00,NW,310,4.0,7.0,83,0.00,,,-99.99,116.000000,,2013-03-29 03:01:00,
2013-03-28 20:32:00,46.0,41.0,-100.00,NW,310,4.0,7.0,83,0.00,,,-99.99,116.000000,,2013-03-29 03:32:00,
2013-03-28 20:43:00,46.0,41.0,-100.00,NW,310,4.0,7.0,83,0.00,,,-99.99,116.000000,,2013-03-29 03:43:00,
2013-03-28 20:53:00,46.0,41.0,-100.00,NW,310,4.0,7.0,83,0.00,,,-99.99,116.000000,,2013-03-29 03:53:00,
2013-03-28 21:01:00,46.0,42.0,-100.00,North,0,5.0,7.0,87,0.00,,,-99.99,10.000000,,2013-03-29 04:01:00,
2013-03-28 21:23:00,46.0,42.0,-100.00,North,0,5.0,7.0,87,0.00,,,-99.99,10.000000,,2013-03-29 04:23:00,
2013-03-28 21:33:00,46.0,42.0,-100.00,North,0,5.0,7.0,87,0.00,,,-99.99,10.000000,,2013-03-29 04:33:00,
2013-03-28 21:43:00,46.0,42.0,-100.00,North,0,5.0,7.0,87,0.00,,,-99.99,10.000000,,2013-03-29 04:43:00,
2013-03-28 21:52:00,46.0,42.0,-100.00,North,0,5.0,7.0,87,0.00,,,-99.99,10.000000,,2013-03-29 04:52:00,
2013-03-28 22:01:00,44.0,43.0,-100.00,NNE,23,3.0,9.0,95,0.00,,,-99.99,0.000000,,2013-03-29 05:01:00,
2013-03-28 22:23:00,44.0,43.0,-100.00,NNE,23,3.0,9.0,95,0.00,,,-99.99,0.000000,,2013-03-29 05:23:00,
2013-03-28 22:33:00,44.0,43.0,-100.00,NNE,23,3.0,9.0,95,0.00,,,-99.99,0.000000,,2013-03-29 05:33:00,
2013-03-28 22:43:00,44.0,43.0,-100.00,NNE,23,3.0,9.0,95,0.00,,,-99.99,0.000000,,2013-03-29 05:43:00,
2013-03-28 22:52:00,44.0,43.0,-100.00,NNE,23,3.0,9.0,95,0.00,,,-99.99,0.000000,,2013-03-29 05:52:00,
2013-03-28 23:01:00,45.0,42.0,-100.00,NNE,25,3.0,7.0,90,0.00,,,-99.99,0.000000,,2013-03-29 06:01:00,
2013-03-28 23:23:00,45.0,42.0,-100.00,NNE,25,3.0,7.0,90,0.00,,,-99.99,0.000000,,2013-03-29 06:23:00,
2013-03-28 23:32:00,45.0,42.0,-100.00,NNE,25,3.0,7.0,90,0.00,,,-99.99,0.000000,,2013-03-29 06:32:00,
2013-03-28 23:42:00,45.0,42.0,-100.00,NNE,25,3.0,7.0,90,0.00,,,-99.99,0.000000,,2013-03-29 06:42:00,
2013-03-28 23:52:00,45.0,42.0,-100.00,NNE,25,3.0,7.0,90,0.00,,,-99.99,0.000000,,2013-03-29 06:52:00,